This is the latest recevied weather packets stored in our database for station/object K9ABJ. If no packets are shown the sender has not sent any weather packets the latest 10 day(s).
| Time | Temp. | Humidity | Pressure | Rain* | Wind** | Luminosity | Snow |
|---|---|---|---|---|---|---|---|
| 1788025986 | 27.78° C | 53% | 1021.7 hPa | 0 mm | - | 592 W/m² | - |
| 1788025684 | 28.33° C | 54% | 1021.9 hPa | 0 mm | - | 661 W/m² | - |
| 1788025384 | 26.67° C | 56% | 1021.7 hPa | 0 mm | - | 603 W/m² | - |
| 1788025080 | 28.33° C | 55% | 1021.9 hPa | 0 mm | - | 597 W/m² | - |
| 1788024774 | 27.22° C | 56% | 1021.8 hPa | 0 mm | - | 510 W/m² | - |
| 1788024470 | 27.22° C | 60% | 1022 hPa | 0 mm | - | 569 W/m² | - |
| 1788024169 | 27.78° C | 54% | 1022 hPa | 0 mm | - | 628 W/m² | - |
| 1788023865 | 26.67° C | 59% | 1022 hPa | 0 mm | - | 689 W/m² | - |
| 1788023560 | 26.67° C | 56% | 1022.3 hPa | 0 mm | - | 573 W/m² | - |
| 1788023256 | 26.67° C | 58% | 1022.5 hPa | 0 mm | - | 595 W/m² | - |
| 1788022950 | 27.22° C | 60% | 1022.1 hPa | 0 mm | - | 506 W/m² | - |
| 1788022648 | 27.22° C | 64% | 1022.3 hPa | 0 mm | - | 387 W/m² | - |
| 1788022347 | 28.89° C | 57% | 1022.3 hPa | 0 mm | - | 388 W/m² | - |
| 1788022047 | 27.78° C | 61% | 1022.3 hPa | 0 mm | - | 637 W/m² | - |
| 1788021741 | 26.11° C | 63% | 1022.6 hPa | 0 mm | - | 596 W/m² | - |
| 1788021439 | 26.11° C | 63% | 1022.7 hPa | 0 mm | - | 546 W/m² | - |
| 1788021134 | 26.11° C | 64% | 1022.7 hPa | 0 mm | - | 492 W/m² | - |
| 1788020830 | 27.22° C | 65% | 1022.8 hPa | 0 mm | - | 239 W/m² | - |
| 1788020524 | 26.11° C | 67% | 1022.4 hPa | 0 mm | - | 563 W/m² | - |
| 1788020220 | 27.22° C | 63% | 1022.5 hPa | 0 mm | - | 536 W/m² | - |
| 1788019915 | 27.22° C | 65% | 1022.8 hPa | 0 mm | - | 393 W/m² | - |
| 1788019610 | 27.22° C | 65% | 1022.7 hPa | 0 mm | - | 520 W/m² | - |
| 1788019310 | 25.56° C | 68% | 1022.9 hPa | 0 mm | - | 568 W/m² | - |
| 1788019008 | 26.67° C | 65% | 1022.9 hPa | 0 mm | - | 385 W/m² | - |
| 1788018703 | 26.11° C | 69% | 1022.8 hPa | 0 mm | - | 388 W/m² | - |
* Rain latest hour (hover to see other rain measurements)
** Current wind speed in m/s (hover to see current wind gust speed)